sensor_id;sensor_type;location;lat;lon;timestamp;P1;durP1;ratioP1;P2;durP2;ratioP2
4575;SDS011;2300;51.874;8.430;2023-02-01T00:01:11;27.17;;;5.50;;
4575;SDS011;2300;51.874;8.430;2023-02-01T00:03:38;21.83;;;5.67;;
4575;SDS011;2300;51.874;8.430;2023-02-01T00:06:06;19.03;;;4.07;;
4575;SDS011;2300;51.874;8.430;2023-02-01T00:08:32;27.20;;;5.50;;
4575;SDS011;2300;51.874;8.430;2023-02-01T00:11:00;19.87;;;4.53;;
4575;SDS011;2300;51.874;8.430;2023-02-01T00:13:29;26.43;;;5.50;;
4575;SDS011;2300;51.874;8.430;2023-02-01T00:16:01;20.97;;;4.77;;
4575;SDS011;2300;51.874;8.430;2023-02-01T00:18:29;21.50;;;5.53;;
4575;SDS011;2300;51.874;8.430;2023-02-01T00:20:55;20.40;;;5.20;;
4575;SDS011;2300;51.874;8.430;2023-02-01T00:23:23;18.73;;;4.60;;
4575;SDS011;2300;51.874;8.430;2023-02-01T00:25:50;16.80;;;4.43;;
4575;SDS011;2300;51.874;8.430;2023-02-01T00:28:16;22.00;;;5.43;;
4575;SDS011;2300;51.874;8.430;2023-02-01T00:30:43;23.70;;;5.93;;
4575;SDS011;2300;51.874;8.430;2023-02-01T00:33:09;20.27;;;4.90;;
4575;SDS011;2300;51.874;8.430;2023-02-01T00:35:36;19.57;;;4.50;;
4575;SDS011;2300;51.874;8.430;2023-02-01T00:38:02;25.00;;;6.13;;
4575;SDS011;2300;51.874;8.430;2023-02-01T00:40:30;23.07;;;4.87;;
4575;SDS011;2300;51.874;8.430;2023-02-01T00:42:56;20.87;;;4.90;;
4575;SDS011;2300;51.874;8.430;2023-02-01T00:45:23;19.10;;;4.60;;
4575;SDS011;2300;51.874;8.430;2023-02-01T00:47:49;20.20;;;4.47;;
4575;SDS011;2300;51.874;8.430;2023-02-01T00:50:16;20.63;;;5.33;;
4575;SDS011;2300;51.874;8.430;2023-02-01T00:52:42;21.60;;;5.67;;
4575;SDS011;2300;51.874;8.430;2023-02-01T00:55:09;24.13;;;5.70;;
4575;SDS011;2300;51.874;8.430;2023-02-01T00:57:37;20.40;;;6.17;;
4575;SDS011;2300;51.874;8.430;2023-02-01T01:00:03;23.30;;;6.40;;
4575;SDS011;2300;51.874;8.430;2023-02-01T01:02:31;24.47;;;7.73;;
4575;SDS011;2300;51.874;8.430;2023-02-01T01:04:57;22.93;;;5.50;;
4575;SDS011;2300;51.874;8.430;2023-02-01T01:07:23;22.57;;;5.37;;
4575;SDS011;2300;51.874;8.430;2023-02-01T01:09:50;22.57;;;5.73;;
4575;SDS011;2300;51.874;8.430;2023-02-01T01:12:16;26.03;;;6.13;;
4575;SDS011;2300;51.874;8.430;2023-02-01T01:14:46;20.20;;;6.40;;
4575;SDS011;2300;51.874;8.430;2023-02-01T01:17:12;23.97;;;5.30;;
4575;SDS011;2300;51.874;8.430;2023-02-01T01:19:39;18.67;;;5.00;;
4575;SDS011;2300;51.874;8.430;2023-02-01T01:22:05;17.77;;;4.50;;
4575;SDS011;2300;51.874;8.430;2023-02-01T01:24:32;20.80;;;5.70;;
4575;SDS011;2300;51.874;8.430;2023-02-01T01:26:58;23.80;;;5.50;;
4575;SDS011;2300;51.874;8.430;2023-02-01T01:29:25;21.63;;;5.10;;
4575;SDS011;2300;51.874;8.430;2023-02-01T01:31:52;20.57;;;4.67;;
4575;SDS011;2300;51.874;8.430;2023-02-01T01:34:19;24.67;;;6.60;;
4575;SDS011;2300;51.874;8.430;2023-02-01T01:36:45;25.40;;;11.80;;
4575;SDS011;2300;51.874;8.430;2023-02-01T01:39:12;25.30;;;6.00;;
4575;SDS011;2300;51.874;8.430;2023-02-01T01:41:38;22.73;;;6.50;;
4575;SDS011;2300;51.874;8.430;2023-02-01T01:44:05;25.63;;;5.37;;
4575;SDS011;2300;51.874;8.430;2023-02-01T01:46:53;23.53;;;6.07;;
4575;SDS011;2300;51.874;8.430;2023-02-01T01:49:20;19.63;;;5.93;;
4575;SDS011;2300;51.874;8.430;2023-02-01T01:51:51;19.67;;;8.90;;
4575;SDS011;2300;51.874;8.430;2023-02-01T01:54:22;23.23;;;7.10;;
4575;SDS011;2300;51.874;8.430;2023-02-01T01:56:52;19.53;;;5.33;;
4575;SDS011;2300;51.874;8.430;2023-02-01T01:59:23;24.43;;;7.13;;
4575;SDS011;2300;51.874;8.430;2023-02-01T02:01:50;21.07;;;6.57;;
4575;SDS011;2300;51.874;8.430;2023-02-01T02:04:19;22.03;;;6.10;;
4575;SDS011;2300;51.874;8.430;2023-02-01T02:06:47;29.77;;;9.20;;
4575;SDS011;2300;51.874;8.430;2023-02-01T02:09:18;25.03;;;13.57;;
4575;SDS011;2300;51.874;8.430;2023-02-01T02:11:45;29.17;;;8.60;;
4575;SDS011;2300;51.874;8.430;2023-02-01T02:14:11;25.47;;;8.50;;
4575;SDS011;2300;51.874;8.430;2023-02-01T02:16:51;24.00;;;7.80;;
4575;SDS011;2300;51.874;8.430;2023-02-01T02:19:32;23.30;;;8.03;;
4575;SDS011;2300;51.874;8.430;2023-02-01T02:28:30;26.30;;;8.77;;
4575;SDS011;2300;51.874;8.430;2023-02-01T02:31:27;24.93;;;7.47;;
4575;SDS011;2300;51.874;8.430;2023-02-01T02:34:12;26.80;;;6.77;;
4575;SDS011;2300;51.874;8.430;2023-02-01T02:36:46;26.07;;;7.50;;
4575;SDS011;2300;51.874;8.430;2023-02-01T02:39:23;23.57;;;10.00;;
4575;SDS011;2300;51.874;8.430;2023-02-01T02:42:00;23.33;;;5.60;;
4575;SDS011;2300;51.874;8.430;2023-02-01T02:44:49;33.77;;;5.97;;
4575;SDS011;2300;51.874;8.430;2023-02-01T02:47:40;17.00;;;5.30;;
4575;SDS011;2300;51.874;8.430;2023-02-01T02:50:15;22.17;;;4.67;;
4575;SDS011;2300;51.874;8.430;2023-02-01T02:53:07;21.30;;;5.43;;
4575;SDS011;2300;51.874;8.430;2023-02-01T02:55:56;23.00;;;7.87;;
4575;SDS011;2300;51.874;8.430;2023-02-01T02:58:42;19.80;;;5.37;;
4575;SDS011;2300;51.874;8.430;2023-02-01T03:01:26;19.70;;;5.83;;
4575;SDS011;2300;51.874;8.430;2023-02-01T03:04:11;14.93;;;3.97;;
4575;SDS011;2300;51.874;8.430;2023-02-01T03:06:43;21.33;;;4.97;;
4575;SDS011;2300;51.874;8.430;2023-02-01T03:09:12;16.10;;;7.17;;
4575;SDS011;2300;51.874;8.430;2023-02-01T03:11:44;16.57;;;4.50;;
4575;SDS011;2300;51.874;8.430;2023-02-01T03:14:33;21.67;;;4.63;;
4575;SDS011;2300;51.874;8.430;2023-02-01T03:17:03;22.90;;;10.97;;
4575;SDS011;2300;51.874;8.430;2023-02-01T03:19:33;22.17;;;4.77;;
4575;SDS011;2300;51.874;8.430;2023-02-01T03:22:05;48.50;;;44.03;;
4575;SDS011;2300;51.874;8.430;2023-02-01T03:24:35;17.80;;;3.93;;
4575;SDS011;2300;51.874;8.430;2023-02-01T03:27:05;17.83;;;4.00;;
4575;SDS011;2300;51.874;8.430;2023-02-01T03:29:38;18.80;;;4.17;;
4575;SDS011;2300;51.874;8.430;2023-02-01T03:32:10;19.60;;;4.00;;
4575;SDS011;2300;51.874;8.430;2023-02-01T03:34:37;21.90;;;3.57;;
4575;SDS011;2300;51.874;8.430;2023-02-01T03:37:05;20.37;;;4.33;;
4575;SDS011;2300;51.874;8.430;2023-02-01T03:39:36;18.00;;;4.10;;
4575;SDS011;2300;51.874;8.430;2023-02-01T03:42:08;22.00;;;5.37;;
4575;SDS011;2300;51.874;8.430;2023-02-01T03:44:39;17.73;;;5.23;;
4575;SDS011;2300;51.874;8.430;2023-02-01T03:47:13;21.47;;;4.50;;
4575;SDS011;2300;51.874;8.430;2023-02-01T03:49:45;17.63;;;4.80;;
4575;SDS011;2300;51.874;8.430;2023-02-01T03:52:16;62.93;;;22.77;;
4575;SDS011;2300;51.874;8.430;2023-02-01T03:54:48;20.40;;;4.87;;
4575;SDS011;2300;51.874;8.430;2023-02-01T03:57:16;22.93;;;5.90;;
4575;SDS011;2300;51.874;8.430;2023-02-01T03:59:48;23.73;;;4.63;;
4575;SDS011;2300;51.874;8.430;2023-02-01T04:02:15;26.13;;;4.77;;
4575;SDS011;2300;51.874;8.430;2023-02-01T04:04:42;16.33;;;4.10;;
4575;SDS011;2300;51.874;8.430;2023-02-01T04:07:09;21.90;;;7.67;;
4575;SDS011;2300;51.874;8.430;2023-02-01T04:09:37;19.97;;;5.20;;
4575;SDS011;2300;51.874;8.430;2023-02-01T04:12:03;24.10;;;9.80;;
4575;SDS011;2300;51.874;8.430;2023-02-01T04:14:30;160.83;;;45.33;;
4575;SDS011;2300;51.874;8.430;2023-02-01T04:16:56;20.47;;;7.67;;
4575;SDS011;2300;51.874;8.430;2023-02-01T04:19:23;23.00;;;5.37;;
4575;SDS011;2300;51.874;8.430;2023-02-01T04:21:49;27.37;;;5.10;;
4575;SDS011;2300;51.874;8.430;2023-02-01T04:24:16;21.33;;;5.17;;
4575;SDS011;2300;51.874;8.430;2023-02-01T04:26:43;27.50;;;6.83;;
4575;SDS011;2300;51.874;8.430;2023-02-01T04:29:10;23.60;;;7.07;;
4575;SDS011;2300;51.874;8.430;2023-02-01T04:31:36;21.73;;;5.10;;
4575;SDS011;2300;51.874;8.430;2023-02-01T04:34:03;16.20;;;4.60;;
4575;SDS011;2300;51.874;8.430;2023-02-01T04:36:29;17.20;;;3.57;;
4575;SDS011;2300;51.874;8.430;2023-02-01T04:38:56;13.80;;;4.30;;
4575;SDS011;2300;51.874;8.430;2023-02-01T04:41:22;23.83;;;7.70;;
4575;SDS011;2300;51.874;8.430;2023-02-01T04:43:50;17.87;;;4.70;;
4575;SDS011;2300;51.874;8.430;2023-02-01T04:46:17;21.13;;;6.17;;
4575;SDS011;2300;51.874;8.430;2023-02-01T04:48:44;16.83;;;4.27;;
4575;SDS011;2300;51.874;8.430;2023-02-01T04:51:10;18.77;;;6.90;;
4575;SDS011;2300;51.874;8.430;2023-02-01T04:53:37;19.50;;;5.40;;
4575;SDS011;2300;51.874;8.430;2023-02-01T04:56:04;26.43;;;5.53;;
4575;SDS011;2300;51.874;8.430;2023-02-01T04:58:31;26.67;;;5.07;;
4575;SDS011;2300;51.874;8.430;2023-02-01T05:00:59;22.87;;;5.40;;
4575;SDS011;2300;51.874;8.430;2023-02-01T05:03:29;22.90;;;5.30;;
4575;SDS011;2300;51.874;8.430;2023-02-01T05:05:56;16.47;;;4.43;;
4575;SDS011;2300;51.874;8.430;2023-02-01T05:08:22;23.07;;;9.50;;
4575;SDS011;2300;51.874;8.430;2023-02-01T05:10:50;24.80;;;10.40;;
4575;SDS011;2300;51.874;8.430;2023-02-01T05:13:16;21.80;;;4.83;;
4575;SDS011;2300;51.874;8.430;2023-02-01T05:16:03;30.03;;;15.70;;
4575;SDS011;2300;51.874;8.430;2023-02-01T05:18:30;23.57;;;7.17;;
4575;SDS011;2300;51.874;8.430;2023-02-01T05:20:56;27.43;;;6.87;;
4575;SDS011;2300;51.874;8.430;2023-02-01T05:23:23;28.63;;;5.60;;
4575;SDS011;2300;51.874;8.430;2023-02-01T05:25:49;24.07;;;8.10;;
4575;SDS011;2300;51.874;8.430;2023-02-01T05:28:16;24.03;;;7.83;;
4575;SDS011;2300;51.874;8.430;2023-02-01T05:30:42;18.00;;;8.00;;
4575;SDS011;2300;51.874;8.430;2023-02-01T05:33:10;32.93;;;21.40;;
4575;SDS011;2300;51.874;8.430;2023-02-01T05:35:36;25.57;;;9.30;;
4575;SDS011;2300;51.874;8.430;2023-02-01T05:38:03;22.43;;;11.13;;
4575;SDS011;2300;51.874;8.430;2023-02-01T05:40:29;32.67;;;14.63;;
4575;SDS011;2300;51.874;8.430;2023-02-01T05:42:56;30.43;;;8.63;;
4575;SDS011;2300;51.874;8.430;2023-02-01T05:45:23;66.53;;;21.07;;
4575;SDS011;2300;51.874;8.430;2023-02-01T05:47:49;48.00;;;14.20;;
4575;SDS011;2300;51.874;8.430;2023-02-01T05:50:17;51.27;;;13.63;;
4575;SDS011;2300;51.874;8.430;2023-02-01T05:52:44;42.80;;;16.13;;
4575;SDS011;2300;51.874;8.430;2023-02-01T05:55:10;49.47;;;14.97;;
4575;SDS011;2300;51.874;8.430;2023-02-01T05:57:37;88.50;;;47.57;;
4575;SDS011;2300;51.874;8.430;2023-02-01T06:00:03;28.80;;;11.80;;
4575;SDS011;2300;51.874;8.430;2023-02-01T06:02:30;38.03;;;31.97;;
4575;SDS011;2300;51.874;8.430;2023-02-01T06:04:58;29.47;;;12.90;;
4575;SDS011;2300;51.874;8.430;2023-02-01T06:07:27;29.93;;;9.07;;
4575;SDS011;2300;51.874;8.430;2023-02-01T06:09:55;26.37;;;7.00;;
4575;SDS011;2300;51.874;8.430;2023-02-01T06:12:21;25.33;;;7.90;;
4575;SDS011;2300;51.874;8.430;2023-02-01T06:14:48;35.83;;;16.77;;
4575;SDS011;2300;51.874;8.430;2023-02-01T06:17:14;29.07;;;7.70;;
4575;SDS011;2300;51.874;8.430;2023-02-01T06:19:41;16.10;;;6.17;;
4575;SDS011;2300;51.874;8.430;2023-02-01T06:22:13;30.53;;;13.67;;
4575;SDS011;2300;51.874;8.430;2023-02-01T06:24:41;32.00;;;6.10;;
4575;SDS011;2300;51.874;8.430;2023-02-01T06:27:07;126.23;;;49.53;;
4575;SDS011;2300;51.874;8.430;2023-02-01T06:29:35;200.67;;;93.63;;
4575;SDS011;2300;51.874;8.430;2023-02-01T06:32:01;44.23;;;23.23;;
4575;SDS011;2300;51.874;8.430;2023-02-01T06:34:28;25.37;;;9.33;;
4575;SDS011;2300;51.874;8.430;2023-02-01T06:36:55;20.80;;;6.47;;
4575;SDS011;2300;51.874;8.430;2023-02-01T06:39:21;20.53;;;5.00;;
4575;SDS011;2300;51.874;8.430;2023-02-01T06:41:49;21.30;;;9.47;;
4575;SDS011;2300;51.874;8.430;2023-02-01T06:44:16;20.63;;;5.17;;
4575;SDS011;2300;51.874;8.430;2023-02-01T06:46:44;24.23;;;5.53;;
4575;SDS011;2300;51.874;8.430;2023-02-01T06:49:10;20.30;;;7.33;;
4575;SDS011;2300;51.874;8.430;2023-02-01T06:51:37;21.40;;;5.67;;
4575;SDS011;2300;51.874;8.430;2023-02-01T06:54:04;24.00;;;12.07;;
4575;SDS011;2300;51.874;8.430;2023-02-01T06:56:30;26.00;;;5.67;;
4575;SDS011;2300;51.874;8.430;2023-02-01T06:58:58;27.60;;;5.60;;
4575;SDS011;2300;51.874;8.430;2023-02-01T07:01:25;20.60;;;7.03;;
4575;SDS011;2300;51.874;8.430;2023-02-01T07:03:51;23.73;;;8.37;;
4575;SDS011;2300;51.874;8.430;2023-02-01T07:06:18;21.83;;;5.50;;
4575;SDS011;2300;51.874;8.430;2023-02-01T07:08:45;25.23;;;9.83;;
4575;SDS011;2300;51.874;8.430;2023-02-01T07:11:12;18.93;;;7.27;;
4575;SDS011;2300;51.874;8.430;2023-02-01T07:13:39;19.57;;;9.27;;
4575;SDS011;2300;51.874;8.430;2023-02-01T07:16:09;20.53;;;5.03;;
4575;SDS011;2300;51.874;8.430;2023-02-01T07:18:37;24.70;;;8.50;;
4575;SDS011;2300;51.874;8.430;2023-02-01T07:21:04;15.73;;;5.57;;
4575;SDS011;2300;51.874;8.430;2023-02-01T07:23:31;22.83;;;7.60;;
4575;SDS011;2300;51.874;8.430;2023-02-01T07:25:59;20.50;;;7.47;;
4575;SDS011;2300;51.874;8.430;2023-02-01T07:28:27;17.83;;;11.30;;
4575;SDS011;2300;51.874;8.430;2023-02-01T07:30:55;26.87;;;6.27;;
4575;SDS011;2300;51.874;8.430;2023-02-01T07:33:29;19.50;;;3.93;;
4575;SDS011;2300;51.874;8.430;2023-02-01T07:35:55;23.73;;;4.80;;
4575;SDS011;2300;51.874;8.430;2023-02-01T07:38:22;20.17;;;6.27;;
4575;SDS011;2300;51.874;8.430;2023-02-01T07:40:48;19.67;;;5.10;;
4575;SDS011;2300;51.874;8.430;2023-02-01T07:43:15;27.30;;;15.27;;
4575;SDS011;2300;51.874;8.430;2023-02-01T07:45:42;18.30;;;8.83;;
4575;SDS011;2300;51.874;8.430;2023-02-01T07:48:08;23.43;;;10.67;;
4575;SDS011;2300;51.874;8.430;2023-02-01T07:50:36;22.33;;;6.90;;
4575;SDS011;2300;51.874;8.430;2023-02-01T07:53:02;26.13;;;12.77;;
4575;SDS011;2300;51.874;8.430;2023-02-01T07:55:29;23.80;;;5.43;;
4575;SDS011;2300;51.874;8.430;2023-02-01T07:57:56;17.60;;;4.93;;
4575;SDS011;2300;51.874;8.430;2023-02-01T08:00:23;21.33;;;9.97;;
4575;SDS011;2300;51.874;8.430;2023-02-01T08:03:09;21.47;;;12.43;;
4575;SDS011;2300;51.874;8.430;2023-02-01T08:05:37;29.03;;;6.40;;
4575;SDS011;2300;51.874;8.430;2023-02-01T08:08:03;20.27;;;5.67;;
4575;SDS011;2300;51.874;8.430;2023-02-01T08:10:30;20.50;;;4.93;;
4575;SDS011;2300;51.874;8.430;2023-02-01T08:12:57;18.80;;;8.73;;
4575;SDS011;2300;51.874;8.430;2023-02-01T08:15:24;17.07;;;5.90;;
4575;SDS011;2300;51.874;8.430;2023-02-01T08:17:51;23.83;;;16.27;;
4575;SDS011;2300;51.874;8.430;2023-02-01T08:20:19;20.03;;;4.83;;
4575;SDS011;2300;51.874;8.430;2023-02-01T08:22:48;30.10;;;6.77;;
4575;SDS011;2300;51.874;8.430;2023-02-01T08:25:14;20.00;;;6.37;;
4575;SDS011;2300;51.874;8.430;2023-02-01T08:27:41;22.10;;;5.47;;
4575;SDS011;2300;51.874;8.430;2023-02-01T08:30:08;19.20;;;5.03;;
4575;SDS011;2300;51.874;8.430;2023-02-01T08:32:36;23.43;;;5.00;;
4575;SDS011;2300;51.874;8.430;2023-02-01T08:35:02;22.97;;;12.70;;
4575;SDS011;2300;51.874;8.430;2023-02-01T08:37:30;22.63;;;6.17;;
4575;SDS011;2300;51.874;8.430;2023-02-01T08:39:58;26.30;;;7.57;;
4575;SDS011;2300;51.874;8.430;2023-02-01T08:42:25;22.13;;;7.23;;
4575;SDS011;2300;51.874;8.430;2023-02-01T08:45:11;32.40;;;23.07;;
4575;SDS011;2300;51.874;8.430;2023-02-01T08:47:38;24.90;;;7.70;;
4575;SDS011;2300;51.874;8.430;2023-02-01T08:50:05;21.93;;;6.13;;
4575;SDS011;2300;51.874;8.430;2023-02-01T08:52:32;18.03;;;5.70;;
4575;SDS011;2300;51.874;8.430;2023-02-01T08:55:00;28.83;;;18.30;;
4575;SDS011;2300;51.874;8.430;2023-02-01T08:57:26;24.37;;;15.67;;
4575;SDS011;2300;51.874;8.430;2023-02-01T08:59:53;44.17;;;34.97;;
4575;SDS011;2300;51.874;8.430;2023-02-01T09:02:19;23.10;;;7.30;;
4575;SDS011;2300;51.874;8.430;2023-02-01T09:04:46;24.57;;;16.10;;
4575;SDS011;2300;51.874;8.430;2023-02-01T09:07:12;39.03;;;21.13;;
4575;SDS011;2300;51.874;8.430;2023-02-01T09:09:39;25.37;;;12.13;;
4575;SDS011;2300;51.874;8.430;2023-02-01T09:12:07;23.13;;;16.87;;
4575;SDS011;2300;51.874;8.430;2023-02-01T09:14:33;30.07;;;11.93;;
4575;SDS011;2300;51.874;8.430;2023-02-01T09:17:00;26.20;;;6.87;;
4575;SDS011;2300;51.874;8.430;2023-02-01T09:19:27;36.07;;;32.33;;
4575;SDS011;2300;51.874;8.430;2023-02-01T09:21:53;25.60;;;6.70;;
4575;SDS011;2300;51.874;8.430;2023-02-01T09:24:30;22.27;;;6.20;;
4575;SDS011;2300;51.874;8.430;2023-02-01T09:26:57;23.50;;;8.27;;
4575;SDS011;2300;51.874;8.430;2023-02-01T09:29:24;36.43;;;13.53;;
4575;SDS011;2300;51.874;8.430;2023-02-01T09:31:51;24.87;;;11.47;;
4575;SDS011;2300;51.874;8.430;2023-02-01T09:34:17;25.20;;;9.43;;
4575;SDS011;2300;51.874;8.430;2023-02-01T09:36:44;25.67;;;8.33;;
4575;SDS011;2300;51.874;8.430;2023-02-01T09:39:10;22.80;;;7.13;;
4575;SDS011;2300;51.874;8.430;2023-02-01T09:41:39;22.30;;;6.63;;
4575;SDS011;2300;51.874;8.430;2023-02-01T09:44:29;20.23;;;6.77;;
4575;SDS011;2300;51.874;8.430;2023-02-01T09:47:09;27.03;;;8.03;;
4575;SDS011;2300;51.874;8.430;2023-02-01T09:49:39;22.37;;;7.83;;
4575;SDS011;2300;51.874;8.430;2023-02-01T09:52:15;23.77;;;12.27;;
4575;SDS011;2300;51.874;8.430;2023-02-01T09:54:49;24.83;;;7.37;;
4575;SDS011;2300;51.874;8.430;2023-02-01T09:57:24;17.57;;;7.97;;
4575;SDS011;2300;51.874;8.430;2023-02-01T09:59:56;21.57;;;8.63;;
4575;SDS011;2300;51.874;8.430;2023-02-01T10:02:26;20.00;;;6.37;;
4575;SDS011;2300;51.874;8.430;2023-02-01T10:04:55;21.23;;;8.07;;
4575;SDS011;2300;51.874;8.430;2023-02-01T10:07:26;37.70;;;26.20;;
4575;SDS011;2300;51.874;8.430;2023-02-01T10:10:01;21.37;;;7.47;;
4575;SDS011;2300;51.874;8.430;2023-02-01T10:12:48;22.87;;;6.80;;
4575;SDS011;2300;51.874;8.430;2023-02-01T10:15:44;19.20;;;7.83;;
4575;SDS011;2300;51.874;8.430;2023-02-01T10:18:27;22.43;;;7.97;;
4575;SDS011;2300;51.874;8.430;2023-02-01T10:21:04;19.40;;;6.73;;
4575;SDS011;2300;51.874;8.430;2023-02-01T10:26:32;17.63;;;5.90;;
4575;SDS011;2300;51.874;8.430;2023-02-01T10:29:00;20.27;;;5.70;;
4575;SDS011;2300;51.874;8.430;2023-02-01T10:31:30;23.23;;;8.83;;
4575;SDS011;2300;51.874;8.430;2023-02-01T10:34:03;21.17;;;6.57;;
4575;SDS011;2300;51.874;8.430;2023-02-01T10:36:39;21.10;;;7.33;;
4575;SDS011;2300;51.874;8.430;2023-02-01T10:39:08;24.30;;;5.97;;
4575;SDS011;2300;51.874;8.430;2023-02-01T10:41:39;27.83;;;9.60;;
4575;SDS011;2300;51.874;8.430;2023-02-01T10:44:10;23.70;;;11.00;;
4575;SDS011;2300;51.874;8.430;2023-02-01T10:46:41;22.00;;;10.93;;
4575;SDS011;2300;51.874;8.430;2023-02-01T10:49:11;36.37;;;12.13;;
4575;SDS011;2300;51.874;8.430;2023-02-01T10:51:43;27.30;;;8.80;;
4575;SDS011;2300;51.874;8.430;2023-02-01T10:54:15;27.50;;;19.67;;
4575;SDS011;2300;51.874;8.430;2023-02-01T10:56:45;38.33;;;32.70;;
4575;SDS011;2300;51.874;8.430;2023-02-01T10:59:14;26.00;;;13.00;;
4575;SDS011;2300;51.874;8.430;2023-02-01T11:01:44;22.57;;;7.87;;
4575;SDS011;2300;51.874;8.430;2023-02-01T11:04:12;25.47;;;21.20;;
4575;SDS011;2300;51.874;8.430;2023-02-01T11:06:41;20.83;;;12.07;;
4575;SDS011;2300;51.874;8.430;2023-02-01T11:09:10;22.57;;;8.07;;
4575;SDS011;2300;51.874;8.430;2023-02-01T11:11:53;23.17;;;7.90;;
4575;SDS011;2300;51.874;8.430;2023-02-01T11:14:26;27.53;;;18.00;;
4575;SDS011;2300;51.874;8.430;2023-02-01T11:17:00;25.70;;;14.57;;
4575;SDS011;2300;51.874;8.430;2023-02-01T11:19:43;25.27;;;9.10;;
4575;SDS011;2300;51.874;8.430;2023-02-01T11:22:11;21.03;;;11.80;;
4575;SDS011;2300;51.874;8.430;2023-02-01T11:24:39;23.47;;;7.47;;
4575;SDS011;2300;51.874;8.430;2023-02-01T11:27:12;25.50;;;10.47;;
4575;SDS011;2300;51.874;8.430;2023-02-01T11:29:43;18.73;;;8.43;;
4575;SDS011;2300;51.874;8.430;2023-02-01T11:32:13;24.30;;;14.43;;
4575;SDS011;2300;51.874;8.430;2023-02-01T11:34:43;34.27;;;21.57;;
4575;SDS011;2300;51.874;8.430;2023-02-01T11:37:21;20.13;;;7.03;;
4575;SDS011;2300;51.874;8.430;2023-02-01T11:39:55;23.10;;;6.83;;
4575;SDS011;2300;51.874;8.430;2023-02-01T11:42:24;25.60;;;17.33;;
4575;SDS011;2300;51.874;8.430;2023-02-01T11:44:51;23.70;;;10.10;;
4575;SDS011;2300;51.874;8.430;2023-02-01T11:47:43;26.43;;;11.90;;
4575;SDS011;2300;51.874;8.430;2023-02-01T11:50:12;20.70;;;9.00;;
4575;SDS011;2300;51.874;8.430;2023-02-01T11:52:45;71.27;;;39.67;;
4575;SDS011;2300;51.874;8.430;2023-02-01T11:58:18;72.83;;;26.87;;
4575;SDS011;2300;51.874;8.430;2023-02-01T12:01:00;24.10;;;8.77;;
4575;SDS011;2300;51.874;8.430;2023-02-01T12:03:44;21.07;;;9.93;;
4575;SDS011;2300;51.874;8.430;2023-02-01T12:06:27;28.57;;;10.77;;
4575;SDS011;2300;51.874;8.430;2023-02-01T12:09:02;24.17;;;10.73;;
4575;SDS011;2300;51.874;8.430;2023-02-01T12:11:52;25.50;;;12.93;;
4575;SDS011;2300;51.874;8.430;2023-02-01T12:14:31;26.73;;;15.10;;
4575;SDS011;2300;51.874;8.430;2023-02-01T12:17:10;44.40;;;40.20;;
4575;SDS011;2300;51.874;8.430;2023-02-01T12:19:54;37.83;;;25.63;;
4575;SDS011;2300;51.874;8.430;2023-02-01T12:22:46;22.23;;;16.30;;
4575;SDS011;2300;51.874;8.430;2023-02-01T12:28:23;30.37;;;13.33;;
4575;SDS011;2300;51.874;8.430;2023-02-01T12:31:07;27.27;;;12.83;;
4575;SDS011;2300;51.874;8.430;2023-02-01T12:33:57;27.17;;;12.23;;
4575;SDS011;2300;51.874;8.430;2023-02-01T12:36:35;30.47;;;23.37;;
4575;SDS011;2300;51.874;8.430;2023-02-01T12:39:09;24.60;;;15.80;;
4575;SDS011;2300;51.874;8.430;2023-02-01T12:41:49;28.93;;;16.50;;
4575;SDS011;2300;51.874;8.430;2023-02-01T12:44:24;24.90;;;16.00;;
4575;SDS011;2300;51.874;8.430;2023-02-01T12:46:57;30.63;;;10.70;;
4575;SDS011;2300;51.874;8.430;2023-02-01T12:49:28;24.90;;;12.67;;
4575;SDS011;2300;51.874;8.430;2023-02-01T12:52:09;77.40;;;37.40;;
4575;SDS011;2300;51.874;8.430;2023-02-01T12:54:40;155.50;;;45.33;;
4575;SDS011;2300;51.874;8.430;2023-02-01T12:57:15;28.03;;;21.27;;
4575;SDS011;2300;51.874;8.430;2023-02-01T12:59:47;32.73;;;27.20;;
4575;SDS011;2300;51.874;8.430;2023-02-01T13:02:19;29.33;;;14.60;;
4575;SDS011;2300;51.874;8.430;2023-02-01T13:04:59;39.97;;;35.80;;
4575;SDS011;2300;51.874;8.430;2023-02-01T13:07:34;67.63;;;61.87;;
4575;SDS011;2300;51.874;8.430;2023-02-01T13:10:11;73.10;;;67.23;;
4575;SDS011;2300;51.874;8.430;2023-02-01T13:12:43;52.40;;;47.93;;
4575;SDS011;2300;51.874;8.430;2023-02-01T13:15:16;35.77;;;31.30;;
4575;SDS011;2300;51.874;8.430;2023-02-01T13:17:46;89.23;;;42.03;;
4575;SDS011;2300;51.874;8.430;2023-02-01T13:20:16;33.60;;;30.13;;
4575;SDS011;2300;51.874;8.430;2023-02-01T13:22:50;41.47;;;37.47;;
4575;SDS011;2300;51.874;8.430;2023-02-01T13:25:26;45.63;;;40.63;;
4575;SDS011;2300;51.874;8.430;2023-02-01T13:27:59;40.57;;;36.47;;
4575;SDS011;2300;51.874;8.430;2023-02-01T13:30:32;99.43;;;65.53;;
4575;SDS011;2300;51.874;8.430;2023-02-01T13:33:21;35.23;;;31.67;;
4575;SDS011;2300;51.874;8.430;2023-02-01T13:36:05;88.20;;;58.77;;
4575;SDS011;2300;51.874;8.430;2023-02-01T13:38:52;38.27;;;33.03;;
4575;SDS011;2300;51.874;8.430;2023-02-01T13:41:32;74.57;;;39.23;;
4575;SDS011;2300;51.874;8.430;2023-02-01T13:44:10;35.40;;;31.03;;
4575;SDS011;2300;51.874;8.430;2023-02-01T13:46:41;29.63;;;11.47;;
4575;SDS011;2300;51.874;8.430;2023-02-01T13:49:15;38.37;;;31.57;;
4575;SDS011;2300;51.874;8.430;2023-02-01T13:51:46;56.37;;;49.43;;
4575;SDS011;2300;51.874;8.430;2023-02-01T13:54:27;38.20;;;34.03;;
4575;SDS011;2300;51.874;8.430;2023-02-01T13:56:56;29.30;;;16.97;;
4575;SDS011;2300;51.874;8.430;2023-02-01T14:06:00;27.90;;;21.37;;
4575;SDS011;2300;51.874;8.430;2023-02-01T14:08:40;39.90;;;25.07;;
4575;SDS011;2300;51.874;8.430;2023-02-01T14:14:06;26.37;;;10.40;;
4575;SDS011;2300;51.874;8.430;2023-02-01T14:23:29;30.43;;;27.47;;
4575;SDS011;2300;51.874;8.430;2023-02-01T14:26:16;21.77;;;7.80;;
4575;SDS011;2300;51.874;8.430;2023-02-01T14:28:49;23.40;;;7.90;;
4575;SDS011;2300;51.874;8.430;2023-02-01T14:31:31;26.87;;;9.60;;
4575;SDS011;2300;51.874;8.430;2023-02-01T14:34:02;25.47;;;6.33;;
4575;SDS011;2300;51.874;8.430;2023-02-01T14:36:41;25.87;;;20.90;;
4575;SDS011;2300;51.874;8.430;2023-02-01T14:39:21;37.90;;;17.57;;
4575;SDS011;2300;51.874;8.430;2023-02-01T14:41:55;49.00;;;42.30;;
4575;SDS011;2300;51.874;8.430;2023-02-01T14:44:27;23.13;;;12.70;;
4575;SDS011;2300;51.874;8.430;2023-02-01T14:47:02;23.23;;;7.93;;
4575;SDS011;2300;51.874;8.430;2023-02-01T14:49:34;23.73;;;11.20;;
4575;SDS011;2300;51.874;8.430;2023-02-01T14:52:05;117.07;;;58.43;;
4575;SDS011;2300;51.874;8.430;2023-02-01T14:54:37;32.13;;;28.90;;
4575;SDS011;2300;51.874;8.430;2023-02-01T14:57:08;85.53;;;57.40;;
4575;SDS011;2300;51.874;8.430;2023-02-01T14:59:42;39.17;;;35.43;;
4575;SDS011;2300;51.874;8.430;2023-02-01T15:02:17;12.53;;;5.27;;
4575;SDS011;2300;51.874;8.430;2023-02-01T15:04:47;39.53;;;13.17;;
4575;SDS011;2300;51.874;8.430;2023-02-01T15:07:20;11.83;;;4.90;;
4575;SDS011;2300;51.874;8.430;2023-02-01T15:09:49;8.37;;;1.63;;
4575;SDS011;2300;51.874;8.430;2023-02-01T15:12:22;4.77;;;1.50;;
4575;SDS011;2300;51.874;8.430;2023-02-01T15:15:13;5.77;;;1.40;;
4575;SDS011;2300;51.874;8.430;2023-02-01T15:17:48;6.63;;;2.43;;
4575;SDS011;2300;51.874;8.430;2023-02-01T15:20:41;4.90;;;1.20;;
4575;SDS011;2300;51.874;8.430;2023-02-01T15:23:18;6.67;;;1.47;;
4575;SDS011;2300;51.874;8.430;2023-02-01T15:25:45;1366.90;;;697.23;;
4575;SDS011;2300;51.874;8.430;2023-02-01T15:28:13;1999.90;;;999.90;;
4575;SDS011;2300;51.874;8.430;2023-02-01T15:30:51;1999.90;;;999.90;;
4575;SDS011;2300;51.874;8.430;2023-02-01T15:33:18;1999.90;;;999.90;;
4575;SDS011;2300;51.874;8.430;2023-02-01T15:35:46;1999.90;;;999.90;;
4575;SDS011;2300;51.874;8.430;2023-02-01T15:38:20;17.30;;;7.13;;
4575;SDS011;2300;51.874;8.430;2023-02-01T15:40:56;12.87;;;4.00;;
4575;SDS011;2300;51.874;8.430;2023-02-01T15:43:26;18.10;;;5.07;;
4575;SDS011;2300;51.874;8.430;2023-02-01T15:45:57;19.37;;;5.63;;
4575;SDS011;2300;51.874;8.430;2023-02-01T15:48:25;18.80;;;5.43;;
4575;SDS011;2300;51.874;8.430;2023-02-01T15:50:55;23.23;;;6.53;;